sensor_id;sensor_type;location;lat;lon;timestamp;P1;durP1;ratioP1;P2;durP2;ratioP2
77136;SDS011;66102;48.542;-2.970;2023-05-18T00:00:45;10.95;;;5.03;;
77136;SDS011;66102;48.542;-2.970;2023-05-18T00:03:11;10.65;;;4.80;;
77136;SDS011;66102;48.542;-2.970;2023-05-18T00:05:37;10.75;;;4.75;;
77136;SDS011;66102;48.542;-2.970;2023-05-18T00:08:03;11.00;;;5.30;;
77136;SDS011;66102;48.542;-2.970;2023-05-18T00:10:29;12.10;;;4.75;;
77136;SDS011;66102;48.542;-2.970;2023-05-18T00:12:55;11.63;;;5.35;;
77136;SDS011;66102;48.542;-2.970;2023-05-18T00:15:21;9.55;;;4.30;;
77136;SDS011;66102;48.542;-2.970;2023-05-18T00:17:47;10.98;;;4.72;;
77136;SDS011;66102;48.542;-2.970;2023-05-18T00:20:14;9.70;;;4.82;;
77136;SDS011;66102;48.542;-2.970;2023-05-18T00:22:42;10.18;;;4.53;;
77136;SDS011;66102;48.542;-2.970;2023-05-18T00:25:08;10.90;;;4.82;;
77136;SDS011;66102;48.542;-2.970;2023-05-18T00:27:34;10.90;;;4.90;;
77136;SDS011;66102;48.542;-2.970;2023-05-18T00:30:00;13.13;;;4.50;;
77136;SDS011;66102;48.542;-2.970;2023-05-18T00:32:26;11.20;;;4.45;;
77136;SDS011;66102;48.542;-2.970;2023-05-18T00:34:52;14.75;;;4.72;;
77136;SDS011;66102;48.542;-2.970;2023-05-18T00:37:18;10.07;;;4.30;;
77136;SDS011;66102;48.542;-2.970;2023-05-18T00:39:44;11.15;;;4.70;;
77136;SDS011;66102;48.542;-2.970;2023-05-18T00:42:10;10.70;;;5.25;;
77136;SDS011;66102;48.542;-2.970;2023-05-18T00:44:36;11.65;;;4.70;;
77136;SDS011;66102;48.542;-2.970;2023-05-18T00:47:02;9.25;;;4.47;;
77136;SDS011;66102;48.542;-2.970;2023-05-18T00:49:28;10.02;;;4.30;;
77136;SDS011;66102;48.542;-2.970;2023-05-18T00:51:54;11.35;;;4.45;;
77136;SDS011;66102;48.542;-2.970;2023-05-18T00:54:21;11.82;;;4.40;;
77136;SDS011;66102;48.542;-2.970;2023-05-18T00:56:47;9.63;;;4.68;;
77136;SDS011;66102;48.542;-2.970;2023-05-18T00:59:13;11.82;;;4.60;;
77136;SDS011;66102;48.542;-2.970;2023-05-18T01:01:40;10.90;;;4.80;;
77136;SDS011;66102;48.542;-2.970;2023-05-18T01:04:10;11.20;;;4.75;;
77136;SDS011;66102;48.542;-2.970;2023-05-18T01:06:38;12.45;;;5.25;;
77136;SDS011;66102;48.542;-2.970;2023-05-18T01:09:05;13.98;;;5.30;;
77136;SDS011;66102;48.542;-2.970;2023-05-18T01:12:20;13.60;;;5.25;;
77136;SDS011;66102;48.542;-2.970;2023-05-18T01:14:36;13.93;;;4.65;;
77136;SDS011;66102;48.542;-2.970;2023-05-18T01:22:06;8.68;;;3.83;;
77136;SDS011;66102;48.542;-2.970;2023-05-18T01:24:43;10.90;;;4.25;;
77136;SDS011;66102;48.542;-2.970;2023-05-18T01:27:13;10.93;;;4.70;;
77136;SDS011;66102;48.542;-2.970;2023-05-18T01:29:41;12.55;;;5.50;;
77136;SDS011;66102;48.542;-2.970;2023-05-18T01:32:07;10.90;;;4.60;;
77136;SDS011;66102;48.542;-2.970;2023-05-18T01:34:33;10.13;;;4.60;;
77136;SDS011;66102;48.542;-2.970;2023-05-18T01:36:59;11.23;;;5.10;;
77136;SDS011;66102;48.542;-2.970;2023-05-18T01:39:25;10.70;;;4.35;;
77136;SDS011;66102;48.542;-2.970;2023-05-18T01:41:55;10.07;;;3.95;;
77136;SDS011;66102;48.542;-2.970;2023-05-18T01:46:52;11.73;;;4.72;;
77136;SDS011;66102;48.542;-2.970;2023-05-18T01:52:00;13.30;;;4.38;;
77136;SDS011;66102;48.542;-2.970;2023-05-18T01:54:27;10.73;;;5.00;;
77136;SDS011;66102;48.542;-2.970;2023-05-18T01:56:55;8.80;;;4.53;;
77136;SDS011;66102;48.542;-2.970;2023-05-18T01:59:22;8.35;;;4.63;;
77136;SDS011;66102;48.542;-2.970;2023-05-18T02:01:48;9.60;;;4.35;;
77136;SDS011;66102;48.542;-2.970;2023-05-18T02:04:14;11.13;;;4.20;;
77136;SDS011;66102;48.542;-2.970;2023-05-18T02:06:40;9.45;;;4.20;;
77136;SDS011;66102;48.542;-2.970;2023-05-18T02:09:06;10.02;;;4.55;;
77136;SDS011;66102;48.542;-2.970;2023-05-18T02:11:33;9.55;;;3.90;;
77136;SDS011;66102;48.542;-2.970;2023-05-18T02:13:59;12.10;;;4.70;;
77136;SDS011;66102;48.542;-2.970;2023-05-18T02:16:25;10.30;;;4.65;;
77136;SDS011;66102;48.542;-2.970;2023-05-18T02:18:51;11.38;;;4.43;;
77136;SDS011;66102;48.542;-2.970;2023-05-18T02:21:18;10.30;;;4.30;;
77136;SDS011;66102;48.542;-2.970;2023-05-18T02:23:44;11.18;;;4.05;;
77136;SDS011;66102;48.542;-2.970;2023-05-18T02:26:10;9.43;;;4.90;;
77136;SDS011;66102;48.542;-2.970;2023-05-18T02:28:36;10.55;;;4.15;;
77136;SDS011;66102;48.542;-2.970;2023-05-18T02:31:05;9.82;;;4.63;;
77136;SDS011;66102;48.542;-2.970;2023-05-18T02:33:31;10.52;;;4.65;;
77136;SDS011;66102;48.542;-2.970;2023-05-18T02:36:10;10.80;;;3.97;;
77136;SDS011;66102;48.542;-2.970;2023-05-18T02:38:40;10.88;;;4.25;;
77136;SDS011;66102;48.542;-2.970;2023-05-18T02:41:07;10.80;;;4.05;;
77136;SDS011;66102;48.542;-2.970;2023-05-18T02:43:33;9.25;;;4.57;;
77136;SDS011;66102;48.542;-2.970;2023-05-18T02:46:00;10.77;;;4.22;;
77136;SDS011;66102;48.542;-2.970;2023-05-18T02:48:26;11.30;;;4.25;;
77136;SDS011;66102;48.542;-2.970;2023-05-18T02:50:52;10.45;;;4.70;;
77136;SDS011;66102;48.542;-2.970;2023-05-18T02:53:18;8.63;;;4.32;;
77136;SDS011;66102;48.542;-2.970;2023-05-18T02:55:45;10.63;;;4.20;;
77136;SDS011;66102;48.542;-2.970;2023-05-18T02:58:11;8.45;;;3.72;;
77136;SDS011;66102;48.542;-2.970;2023-05-18T03:00:38;9.43;;;3.70;;
77136;SDS011;66102;48.542;-2.970;2023-05-18T03:03:05;10.15;;;4.85;;
77136;SDS011;66102;48.542;-2.970;2023-05-18T03:05:34;10.43;;;4.28;;
77136;SDS011;66102;48.542;-2.970;2023-05-18T03:08:00;7.78;;;3.88;;
77136;SDS011;66102;48.542;-2.970;2023-05-18T03:10:27;12.05;;;4.75;;
77136;SDS011;66102;48.542;-2.970;2023-05-18T03:12:53;9.30;;;4.45;;
77136;SDS011;66102;48.542;-2.970;2023-05-18T03:15:19;12.93;;;4.55;;
77136;SDS011;66102;48.542;-2.970;2023-05-18T03:17:45;12.10;;;4.65;;
77136;SDS011;66102;48.542;-2.970;2023-05-18T03:20:12;10.60;;;4.22;;
77136;SDS011;66102;48.542;-2.970;2023-05-18T03:22:41;11.25;;;4.13;;
77136;SDS011;66102;48.542;-2.970;2023-05-18T03:25:07;11.23;;;4.35;;
77136;SDS011;66102;48.542;-2.970;2023-05-18T03:27:33;12.93;;;4.50;;
77136;SDS011;66102;48.542;-2.970;2023-05-18T03:30:01;10.27;;;4.25;;
77136;SDS011;66102;48.542;-2.970;2023-05-18T03:32:28;8.75;;;3.55;;
77136;SDS011;66102;48.542;-2.970;2023-05-18T03:34:55;8.55;;;3.63;;
77136;SDS011;66102;48.542;-2.970;2023-05-18T03:37:21;9.05;;;4.18;;
77136;SDS011;66102;48.542;-2.970;2023-05-18T03:39:47;9.40;;;4.03;;
77136;SDS011;66102;48.542;-2.970;2023-05-18T03:42:13;9.05;;;4.07;;
77136;SDS011;66102;48.542;-2.970;2023-05-18T03:44:39;10.45;;;4.32;;
77136;SDS011;66102;48.542;-2.970;2023-05-18T03:47:05;9.43;;;4.25;;
77136;SDS011;66102;48.542;-2.970;2023-05-18T03:49:32;11.02;;;4.90;;
77136;SDS011;66102;48.542;-2.970;2023-05-18T03:51:58;10.23;;;4.50;;
77136;SDS011;66102;48.542;-2.970;2023-05-18T03:54:24;11.30;;;4.30;;
77136;SDS011;66102;48.542;-2.970;2023-05-18T03:56:51;12.27;;;4.75;;
77136;SDS011;66102;48.542;-2.970;2023-05-18T03:59:17;10.05;;;4.43;;
77136;SDS011;66102;48.542;-2.970;2023-05-18T04:01:43;10.02;;;4.13;;
77136;SDS011;66102;48.542;-2.970;2023-05-18T04:04:09;9.68;;;4.38;;
77136;SDS011;66102;48.542;-2.970;2023-05-18T04:06:42;10.15;;;4.90;;
77136;SDS011;66102;48.542;-2.970;2023-05-18T04:09:08;10.00;;;4.32;;
77136;SDS011;66102;48.542;-2.970;2023-05-18T04:11:34;11.18;;;4.25;;
77136;SDS011;66102;48.542;-2.970;2023-05-18T04:14:00;12.75;;;4.97;;
77136;SDS011;66102;48.542;-2.970;2023-05-18T04:16:26;9.60;;;5.30;;
77136;SDS011;66102;48.542;-2.970;2023-05-18T04:18:52;10.27;;;4.45;;
77136;SDS011;66102;48.542;-2.970;2023-05-18T04:21:18;11.32;;;3.90;;
77136;SDS011;66102;48.542;-2.970;2023-05-18T04:23:45;10.15;;;4.40;;
77136;SDS011;66102;48.542;-2.970;2023-05-18T04:26:12;9.38;;;4.03;;
77136;SDS011;66102;48.542;-2.970;2023-05-18T04:28:43;8.95;;;4.82;;
77136;SDS011;66102;48.542;-2.970;2023-05-18T04:31:11;10.55;;;4.38;;
77136;SDS011;66102;48.542;-2.970;2023-05-18T04:33:38;8.85;;;4.25;;
77136;SDS011;66102;48.542;-2.970;2023-05-18T04:36:05;8.77;;;4.18;;
77136;SDS011;66102;48.542;-2.970;2023-05-18T04:38:33;11.52;;;3.92;;
77136;SDS011;66102;48.542;-2.970;2023-05-18T04:40:59;10.32;;;4.68;;
77136;SDS011;66102;48.542;-2.970;2023-05-18T04:43:29;11.90;;;4.20;;
77136;SDS011;66102;48.542;-2.970;2023-05-18T04:45:55;9.98;;;4.05;;
77136;SDS011;66102;48.542;-2.970;2023-05-18T04:48:23;10.02;;;4.07;;
77136;SDS011;66102;48.542;-2.970;2023-05-18T04:50:50;8.82;;;4.05;;
77136;SDS011;66102;48.542;-2.970;2023-05-18T04:53:18;11.68;;;4.60;;
77136;SDS011;66102;48.542;-2.970;2023-05-18T04:55:45;9.48;;;4.20;;
77136;SDS011;66102;48.542;-2.970;2023-05-18T04:58:14;13.27;;;4.45;;
77136;SDS011;66102;48.542;-2.970;2023-05-18T05:00:40;9.23;;;4.45;;
77136;SDS011;66102;48.542;-2.970;2023-05-18T05:03:07;10.88;;;4.57;;
77136;SDS011;66102;48.542;-2.970;2023-05-18T05:05:33;9.73;;;3.97;;
77136;SDS011;66102;48.542;-2.970;2023-05-18T05:07:59;9.05;;;4.35;;
77136;SDS011;66102;48.542;-2.970;2023-05-18T05:10:25;13.35;;;4.13;;
77136;SDS011;66102;48.542;-2.970;2023-05-18T05:12:52;9.20;;;4.32;;
77136;SDS011;66102;48.542;-2.970;2023-05-18T05:15:18;12.52;;;4.47;;
77136;SDS011;66102;48.542;-2.970;2023-05-18T05:17:45;9.55;;;4.10;;
77136;SDS011;66102;48.542;-2.970;2023-05-18T05:20:11;9.07;;;4.18;;
77136;SDS011;66102;48.542;-2.970;2023-05-18T05:22:37;9.90;;;4.10;;
77136;SDS011;66102;48.542;-2.970;2023-05-18T05:25:03;7.97;;;3.72;;
77136;SDS011;66102;48.542;-2.970;2023-05-18T05:27:30;10.02;;;4.18;;
77136;SDS011;66102;48.542;-2.970;2023-05-18T05:29:56;9.75;;;4.10;;
77136;SDS011;66102;48.542;-2.970;2023-05-18T05:32:22;10.07;;;4.35;;
77136;SDS011;66102;48.542;-2.970;2023-05-18T05:34:48;11.98;;;5.03;;
77136;SDS011;66102;48.542;-2.970;2023-05-18T05:37:15;10.15;;;3.80;;
77136;SDS011;66102;48.542;-2.970;2023-05-18T05:39:42;10.90;;;4.15;;
77136;SDS011;66102;48.542;-2.970;2023-05-18T05:42:08;10.65;;;4.80;;
77136;SDS011;66102;48.542;-2.970;2023-05-18T05:44:34;9.65;;;4.53;;
77136;SDS011;66102;48.542;-2.970;2023-05-18T05:47:00;10.07;;;4.13;;
77136;SDS011;66102;48.542;-2.970;2023-05-18T05:49:26;9.10;;;4.30;;
77136;SDS011;66102;48.542;-2.970;2023-05-18T05:51:52;10.35;;;4.30;;
77136;SDS011;66102;48.542;-2.970;2023-05-18T05:54:18;11.55;;;4.60;;
77136;SDS011;66102;48.542;-2.970;2023-05-18T05:56:45;10.75;;;4.80;;
77136;SDS011;66102;48.542;-2.970;2023-05-18T05:59:11;7.90;;;3.90;;
77136;SDS011;66102;48.542;-2.970;2023-05-18T06:01:37;10.45;;;4.60;;
77136;SDS011;66102;48.542;-2.970;2023-05-18T06:04:03;10.43;;;4.57;;
77136;SDS011;66102;48.542;-2.970;2023-05-18T06:06:35;12.27;;;5.03;;
77136;SDS011;66102;48.542;-2.970;2023-05-18T06:09:02;8.60;;;4.25;;
77136;SDS011;66102;48.542;-2.970;2023-05-18T06:11:31;10.23;;;4.47;;
77136;SDS011;66102;48.542;-2.970;2023-05-18T06:13:57;9.80;;;4.65;;
77136;SDS011;66102;48.542;-2.970;2023-05-18T06:16:24;10.98;;;5.03;;
77136;SDS011;66102;48.542;-2.970;2023-05-18T06:18:50;12.73;;;5.15;;
77136;SDS011;66102;48.542;-2.970;2023-05-18T06:21:16;8.90;;;4.57;;
77136;SDS011;66102;48.542;-2.970;2023-05-18T06:23:42;13.80;;;5.18;;
77136;SDS011;66102;48.542;-2.970;2023-05-18T06:26:09;10.30;;;4.82;;
77136;SDS011;66102;48.542;-2.970;2023-05-18T06:28:35;8.85;;;4.40;;
77136;SDS011;66102;48.542;-2.970;2023-05-18T06:31:01;11.02;;;4.60;;
77136;SDS011;66102;48.542;-2.970;2023-05-18T06:33:27;13.88;;;5.00;;
77136;SDS011;66102;48.542;-2.970;2023-05-18T06:35:53;10.52;;;5.47;;
77136;SDS011;66102;48.542;-2.970;2023-05-18T06:38:19;10.57;;;4.78;;
77136;SDS011;66102;48.542;-2.970;2023-05-18T06:40:45;11.85;;;5.10;;
77136;SDS011;66102;48.542;-2.970;2023-05-18T06:43:11;10.07;;;4.90;;
77136;SDS011;66102;48.542;-2.970;2023-05-18T06:45:37;10.20;;;4.78;;
77136;SDS011;66102;48.542;-2.970;2023-05-18T06:48:03;10.45;;;5.00;;
77136;SDS011;66102;48.542;-2.970;2023-05-18T06:50:30;13.05;;;5.60;;
77136;SDS011;66102;48.542;-2.970;2023-05-18T06:52:56;11.23;;;5.50;;
77136;SDS011;66102;48.542;-2.970;2023-05-18T06:55:22;12.10;;;5.68;;
77136;SDS011;66102;48.542;-2.970;2023-05-18T06:57:48;11.52;;;5.80;;
77136;SDS011;66102;48.542;-2.970;2023-05-18T07:00:15;10.57;;;4.97;;
77136;SDS011;66102;48.542;-2.970;2023-05-18T07:02:41;12.68;;;5.75;;
77136;SDS011;66102;48.542;-2.970;2023-05-18T07:05:09;13.68;;;6.10;;
77136;SDS011;66102;48.542;-2.970;2023-05-18T07:07:35;11.02;;;5.30;;
77136;SDS011;66102;48.542;-2.970;2023-05-18T07:10:03;13.40;;;5.70;;
77136;SDS011;66102;48.542;-2.970;2023-05-18T07:12:29;13.68;;;6.20;;
77136;SDS011;66102;48.542;-2.970;2023-05-18T07:14:55;14.27;;;6.63;;
77136;SDS011;66102;48.542;-2.970;2023-05-18T07:17:21;11.57;;;5.75;;
77136;SDS011;66102;48.542;-2.970;2023-05-18T07:19:47;11.82;;;6.18;;
77136;SDS011;66102;48.542;-2.970;2023-05-18T07:22:13;12.55;;;6.15;;
77136;SDS011;66102;48.542;-2.970;2023-05-18T07:24:39;15.70;;;6.63;;
77136;SDS011;66102;48.542;-2.970;2023-05-18T07:27:05;13.15;;;6.15;;
77136;SDS011;66102;48.542;-2.970;2023-05-18T07:29:31;13.40;;;6.05;;
77136;SDS011;66102;48.542;-2.970;2023-05-18T07:31:57;12.45;;;6.28;;
77136;SDS011;66102;48.542;-2.970;2023-05-18T07:34:23;14.45;;;6.60;;
77136;SDS011;66102;48.542;-2.970;2023-05-18T07:36:51;13.32;;;6.30;;
77136;SDS011;66102;48.542;-2.970;2023-05-18T07:39:17;12.00;;;6.57;;
77136;SDS011;66102;48.542;-2.970;2023-05-18T07:41:44;12.52;;;6.65;;
77136;SDS011;66102;48.542;-2.970;2023-05-18T07:44:11;12.18;;;6.35;;
77136;SDS011;66102;48.542;-2.970;2023-05-18T07:46:37;13.65;;;6.78;;
77136;SDS011;66102;48.542;-2.970;2023-05-18T07:49:04;14.65;;;6.68;;
77136;SDS011;66102;48.542;-2.970;2023-05-18T07:51:30;11.45;;;5.90;;
77136;SDS011;66102;48.542;-2.970;2023-05-18T07:53:58;15.27;;;6.88;;
77136;SDS011;66102;48.542;-2.970;2023-05-18T07:56:24;10.75;;;5.38;;
77136;SDS011;66102;48.542;-2.970;2023-05-18T07:58:50;12.10;;;5.85;;
77136;SDS011;66102;48.542;-2.970;2023-05-18T08:01:16;15.25;;;6.72;;
77136;SDS011;66102;48.542;-2.970;2023-05-18T08:03:43;17.50;;;7.18;;
77136;SDS011;66102;48.542;-2.970;2023-05-18T08:06:09;14.90;;;7.25;;
77136;SDS011;66102;48.542;-2.970;2023-05-18T08:08:35;13.48;;;6.93;;
77136;SDS011;66102;48.542;-2.970;2023-05-18T08:11:02;13.05;;;6.00;;
77136;SDS011;66102;48.542;-2.970;2023-05-18T08:13:28;12.48;;;5.93;;
77136;SDS011;66102;48.542;-2.970;2023-05-18T08:15:54;11.80;;;6.20;;
77136;SDS011;66102;48.542;-2.970;2023-05-18T08:18:20;14.02;;;6.35;;
77136;SDS011;66102;48.542;-2.970;2023-05-18T08:20:46;17.00;;;6.63;;
77136;SDS011;66102;48.542;-2.970;2023-05-18T08:23:13;11.68;;;6.15;;
77136;SDS011;66102;48.542;-2.970;2023-05-18T08:25:39;13.80;;;5.82;;
77136;SDS011;66102;48.542;-2.970;2023-05-18T08:28:05;12.40;;;6.53;;
77136;SDS011;66102;48.542;-2.970;2023-05-18T08:30:32;13.98;;;5.65;;
77136;SDS011;66102;48.542;-2.970;2023-05-18T08:32:58;12.75;;;6.03;;
77136;SDS011;66102;48.542;-2.970;2023-05-18T08:35:24;12.75;;;5.72;;
77136;SDS011;66102;48.542;-2.970;2023-05-18T08:37:50;14.98;;;6.05;;
77136;SDS011;66102;48.542;-2.970;2023-05-18T08:40:16;14.57;;;5.95;;
77136;SDS011;66102;48.542;-2.970;2023-05-18T08:45:20;14.52;;;6.15;;
77136;SDS011;66102;48.542;-2.970;2023-05-18T08:47:48;14.55;;;6.53;;
77136;SDS011;66102;48.542;-2.970;2023-05-18T08:50:16;12.70;;;5.85;;
77136;SDS011;66102;48.542;-2.970;2023-05-18T08:52:45;12.63;;;5.68;;
77136;SDS011;66102;48.542;-2.970;2023-05-18T08:55:12;14.57;;;6.75;;
77136;SDS011;66102;48.542;-2.970;2023-05-18T08:57:39;12.70;;;5.90;;
77136;SDS011;66102;48.542;-2.970;2023-05-18T09:00:10;16.38;;;6.07;;
77136;SDS011;66102;48.542;-2.970;2023-05-18T09:02:36;16.25;;;5.68;;
77136;SDS011;66102;48.542;-2.970;2023-05-18T09:05:03;11.30;;;5.30;;
77136;SDS011;66102;48.542;-2.970;2023-05-18T09:07:30;14.05;;;6.32;;
77136;SDS011;66102;48.542;-2.970;2023-05-18T09:09:56;14.50;;;6.30;;
77136;SDS011;66102;48.542;-2.970;2023-05-18T09:12:23;15.80;;;6.63;;
77136;SDS011;66102;48.542;-2.970;2023-05-18T09:14:50;12.63;;;7.10;;
77136;SDS011;66102;48.542;-2.970;2023-05-18T09:17:17;11.35;;;5.70;;
77136;SDS011;66102;48.542;-2.970;2023-05-18T09:19:43;14.10;;;6.32;;
77136;SDS011;66102;48.542;-2.970;2023-05-18T09:22:10;14.15;;;5.63;;
77136;SDS011;66102;48.542;-2.970;2023-05-18T09:24:36;13.10;;;5.65;;
77136;SDS011;66102;48.542;-2.970;2023-05-18T09:27:03;12.02;;;5.82;;
77136;SDS011;66102;48.542;-2.970;2023-05-18T09:29:30;14.07;;;5.82;;
77136;SDS011;66102;48.542;-2.970;2023-05-18T09:31:56;14.20;;;6.10;;
77136;SDS011;66102;48.542;-2.970;2023-05-18T09:34:26;15.23;;;6.47;;
77136;SDS011;66102;48.542;-2.970;2023-05-18T09:37:03;13.88;;;5.70;;
77136;SDS011;66102;48.542;-2.970;2023-05-18T09:39:30;10.73;;;5.13;;
77136;SDS011;66102;48.542;-2.970;2023-05-18T09:41:56;11.55;;;4.85;;
77136;SDS011;66102;48.542;-2.970;2023-05-18T09:44:34;13.48;;;6.03;;
77136;SDS011;66102;48.542;-2.970;2023-05-18T09:47:01;12.60;;;5.63;;
77136;SDS011;66102;48.542;-2.970;2023-05-18T09:49:28;11.50;;;5.70;;
77136;SDS011;66102;48.542;-2.970;2023-05-18T09:51:55;16.08;;;5.75;;
77136;SDS011;66102;48.542;-2.970;2023-05-18T09:54:24;13.30;;;6.55;;
77136;SDS011;66102;48.542;-2.970;2023-05-18T09:56:50;11.50;;;6.03;;
77136;SDS011;66102;48.542;-2.970;2023-05-18T09:59:16;13.18;;;5.50;;
77136;SDS011;66102;48.542;-2.970;2023-05-18T10:01:58;14.35;;;6.20;;
77136;SDS011;66102;48.542;-2.970;2023-05-18T10:04:42;14.52;;;6.43;;
77136;SDS011;66102;48.542;-2.970;2023-05-18T10:07:12;13.85;;;6.20;;
77136;SDS011;66102;48.542;-2.970;2023-05-18T10:09:39;13.02;;;5.78;;
77136;SDS011;66102;48.542;-2.970;2023-05-18T10:12:15;13.50;;;5.70;;
77136;SDS011;66102;48.542;-2.970;2023-05-18T10:14:42;10.98;;;5.28;;
77136;SDS011;66102;48.542;-2.970;2023-05-18T10:17:12;14.43;;;5.53;;
77136;SDS011;66102;48.542;-2.970;2023-05-18T10:19:39;15.93;;;6.50;;
77136;SDS011;66102;48.542;-2.970;2023-05-18T10:22:08;11.75;;;5.60;;
77136;SDS011;66102;48.542;-2.970;2023-05-18T10:24:38;13.35;;;5.68;;
77136;SDS011;66102;48.542;-2.970;2023-05-18T10:27:07;14.38;;;5.97;;
77136;SDS011;66102;48.542;-2.970;2023-05-18T10:29:35;13.50;;;5.28;;
77136;SDS011;66102;48.542;-2.970;2023-05-18T10:32:04;11.48;;;5.45;;
77136;SDS011;66102;48.542;-2.970;2023-05-18T10:34:33;14.05;;;5.35;;
77136;SDS011;66102;48.542;-2.970;2023-05-18T10:37:00;10.25;;;4.68;;
77136;SDS011;66102;48.542;-2.970;2023-05-18T10:39:33;12.25;;;5.60;;
77136;SDS011;66102;48.542;-2.970;2023-05-18T10:42:01;13.15;;;5.10;;
77136;SDS011;66102;48.542;-2.970;2023-05-18T10:44:27;12.40;;;5.28;;
77136;SDS011;66102;48.542;-2.970;2023-05-18T10:46:54;13.60;;;4.70;;
77136;SDS011;66102;48.542;-2.970;2023-05-18T10:49:23;11.40;;;5.10;;
77136;SDS011;66102;48.542;-2.970;2023-05-18T10:51:53;10.25;;;4.50;;
77136;SDS011;66102;48.542;-2.970;2023-05-18T10:54:19;13.45;;;5.53;;
77136;SDS011;66102;48.542;-2.970;2023-05-18T10:56:48;13.05;;;5.43;;
77136;SDS011;66102;48.542;-2.970;2023-05-18T10:59:15;10.13;;;5.03;;
77136;SDS011;66102;48.542;-2.970;2023-05-18T11:01:42;11.85;;;5.00;;
77136;SDS011;66102;48.542;-2.970;2023-05-18T11:04:09;11.00;;;4.72;;
77136;SDS011;66102;48.542;-2.970;2023-05-18T11:06:35;10.32;;;4.72;;
77136;SDS011;66102;48.542;-2.970;2023-05-18T11:09:02;10.77;;;5.25;;
77136;SDS011;66102;48.542;-2.970;2023-05-18T11:11:28;17.23;;;4.93;;
77136;SDS011;66102;48.542;-2.970;2023-05-18T11:14:01;10.57;;;5.22;;
77136;SDS011;66102;48.542;-2.970;2023-05-18T11:16:33;12.82;;;6.03;;
77136;SDS011;66102;48.542;-2.970;2023-05-18T11:19:06;10.13;;;5.38;;
77136;SDS011;66102;48.542;-2.970;2023-05-18T11:26:41;15.63;;;4.90;;
77136;SDS011;66102;48.542;-2.970;2023-05-18T11:31:47;14.00;;;5.22;;
77136;SDS011;66102;48.542;-2.970;2023-05-18T11:36:57;11.48;;;4.43;;
77136;SDS011;66102;48.542;-2.970;2023-05-18T11:39:24;12.05;;;4.75;;
77136;SDS011;66102;48.542;-2.970;2023-05-18T11:42:07;11.98;;;5.07;;
77136;SDS011;66102;48.542;-2.970;2023-05-18T11:44:33;11.55;;;4.60;;
77136;SDS011;66102;48.542;-2.970;2023-05-18T11:47:01;12.27;;;4.85;;
77136;SDS011;66102;48.542;-2.970;2023-05-18T11:49:35;9.95;;;4.32;;
77136;SDS011;66102;48.542;-2.970;2023-05-18T11:54:27;14.45;;;4.95;;
77136;SDS011;66102;48.542;-2.970;2023-05-18T11:56:54;10.95;;;4.55;;
77136;SDS011;66102;48.542;-2.970;2023-05-18T11:59:30;11.23;;;4.80;;
77136;SDS011;66102;48.542;-2.970;2023-05-18T12:01:59;11.13;;;4.78;;
77136;SDS011;66102;48.542;-2.970;2023-05-18T12:04:26;11.73;;;5.40;;
77136;SDS011;66102;48.542;-2.970;2023-05-18T12:06:53;13.52;;;5.40;;
77136;SDS011;66102;48.542;-2.970;2023-05-18T12:09:19;12.02;;;5.10;;
77136;SDS011;66102;48.542;-2.970;2023-05-18T12:11:45;13.85;;;5.93;;
77136;SDS011;66102;48.542;-2.970;2023-05-18T12:14:11;15.50;;;5.88;;
77136;SDS011;66102;48.542;-2.970;2023-05-18T12:16:38;11.93;;;5.72;;
77136;SDS011;66102;48.542;-2.970;2023-05-18T12:19:07;14.02;;;6.22;;
77136;SDS011;66102;48.542;-2.970;2023-05-18T12:21:34;13.20;;;5.13;;
77136;SDS011;66102;48.542;-2.970;2023-05-18T12:24:01;15.23;;;6.53;;
77136;SDS011;66102;48.542;-2.970;2023-05-18T12:26:27;12.57;;;4.88;;
77136;SDS011;66102;48.542;-2.970;2023-05-18T12:28:53;12.13;;;5.72;;
77136;SDS011;66102;48.542;-2.970;2023-05-18T12:31:20;12.35;;;5.53;;
77136;SDS011;66102;48.542;-2.970;2023-05-18T12:33:46;13.82;;;5.47;;
77136;SDS011;66102;48.542;-2.970;2023-05-18T12:36:13;14.07;;;6.05;;
77136;SDS011;66102;48.542;-2.970;2023-05-18T12:38:39;15.30;;;6.38;;
77136;SDS011;66102;48.542;-2.970;2023-05-18T12:41:05;14.02;;;6.32;;
77136;SDS011;66102;48.542;-2.970;2023-05-18T12:43:33;11.38;;;6.03;;
77136;SDS011;66102;48.542;-2.970;2023-05-18T12:46:02;14.43;;;6.22;;
77136;SDS011;66102;48.542;-2.970;2023-05-18T12:48:34;14.10;;;5.75;;
77136;SDS011;66102;48.542;-2.970;2023-05-18T12:51:01;15.48;;;6.20;;
77136;SDS011;66102;48.542;-2.970;2023-05-18T12:53:38;15.48;;;5.75;;
77136;SDS011;66102;48.542;-2.970;2023-05-18T12:56:04;15.35;;;5.63;;
77136;SDS011;66102;48.542;-2.970;2023-05-18T12:58:33;9.82;;;4.95;;
77136;SDS011;66102;48.542;-2.970;2023-05-18T13:01:05;11.13;;;5.55;;
77136;SDS011;66102;48.542;-2.970;2023-05-18T13:03:31;12.57;;;5.35;;
77136;SDS011;66102;48.542;-2.970;2023-05-18T13:06:02;13.73;;;5.47;;
77136;SDS011;66102;48.542;-2.970;2023-05-18T13:08:29;10.82;;;4.75;;
77136;SDS011;66102;48.542;-2.970;2023-05-18T13:10:59;11.07;;;5.10;;
77136;SDS011;66102;48.542;-2.970;2023-05-18T13:13:26;18.27;;;5.57;;
77136;SDS011;66102;48.542;-2.970;2023-05-18T13:15:52;11.35;;;4.97;;
77136;SDS011;66102;48.542;-2.970;2023-05-18T13:18:18;11.65;;;5.18;;
77136;SDS011;66102;48.542;-2.970;2023-05-18T13:20:45;11.52;;;4.82;;
77136;SDS011;66102;48.542;-2.970;2023-05-18T13:23:14;13.23;;;5.40;;
77136;SDS011;66102;48.542;-2.970;2023-05-18T13:25:41;12.07;;;5.30;;
77136;SDS011;66102;48.542;-2.970;2023-05-18T13:28:07;10.00;;;5.63;;
77136;SDS011;66102;48.542;-2.970;2023-05-18T13:30:34;9.98;;;5.13;;
77136;SDS011;66102;48.542;-2.970;2023-05-18T13:33:00;11.18;;;5.10;;
77136;SDS011;66102;48.542;-2.970;2023-05-18T13:35:27;10.93;;;5.20;;
77136;SDS011;66102;48.542;-2.970;2023-05-18T13:37:53;13.25;;;5.35;;
77136;SDS011;66102;48.542;-2.970;2023-05-18T13:40:20;12.10;;;4.82;;
77136;SDS011;66102;48.542;-2.970;2023-05-18T13:42:47;12.15;;;4.88;;
77136;SDS011;66102;48.542;-2.970;2023-05-18T13:45:13;15.45;;;4.80;;
77136;SDS011;66102;48.542;-2.970;2023-05-18T13:47:40;10.52;;;4.70;;
77136;SDS011;66102;48.542;-2.970;2023-05-18T13:50:06;11.77;;;5.65;;
77136;SDS011;66102;48.542;-2.970;2023-05-18T13:52:36;10.85;;;4.60;;
77136;SDS011;66102;48.542;-2.970;2023-05-18T13:55:02;10.48;;;4.63;;
77136;SDS011;66102;48.542;-2.970;2023-05-18T13:57:32;8.82;;;4.20;;
77136;SDS011;66102;48.542;-2.970;2023-05-18T13:59:58;13.88;;;4.97;;
77136;SDS011;66102;48.542;-2.970;2023-05-18T14:02:34;9.18;;;4.47;;
77136;SDS011;66102;48.542;-2.970;2023-05-18T14:05:01;13.02;;;5.15;;
77136;SDS011;66102;48.542;-2.970;2023-05-18T14:07:28;10.75;;;5.28;;
77136;SDS011;66102;48.542;-2.970;2023-05-18T14:09:54;11.77;;;5.57;;
77136;SDS011;66102;48.542;-2.970;2023-05-18T14:12:20;17.00;;;6.63;;
77136;SDS011;66102;48.542;-2.970;2023-05-18T14:14:46;17.27;;;6.85;;
77136;SDS011;66102;48.542;-2.970;2023-05-18T14:17:12;17.27;;;7.07;;
77136;SDS011;66102;48.542;-2.970;2023-05-18T14:19:38;15.55;;;6.93;;
77136;SDS011;66102;48.542;-2.970;2023-05-18T14:22:04;16.55;;;7.60;;
77136;SDS011;66102;48.542;-2.970;2023-05-18T14:24:30;15.27;;;6.75;;
77136;SDS011;66102;48.542;-2.970;2023-05-18T14:26:57;18.52;;;6.75;;
77136;SDS011;66102;48.542;-2.970;2023-05-18T14:29:23;16.30;;;7.43;;
77136;SDS011;66102;48.542;-2.970;2023-05-18T14:31:49;13.75;;;6.50;;
77136;SDS011;66102;48.542;-2.970;2023-05-18T14:34:15;15.43;;;5.90;;
77136;SDS011;66102;48.542;-2.970;2023-05-18T14:36:41;16.23;;;7.10;;
77136;SDS011;66102;48.542;-2.970;2023-05-18T14:39:07;14.25;;;6.97;;
77136;SDS011;66102;48.542;-2.970;2023-05-18T14:41:33;11.50;;;5.82;;
77136;SDS011;66102;48.542;-2.970;2023-05-18T14:43:59;12.82;;;5.50;;
77136;SDS011;66102;48.542;-2.970;2023-05-18T14:46:28;13.38;;;6.00;;
77136;SDS011;66102;48.542;-2.970;2023-05-18T14:48:54;15.57;;;6.50;;